Time;durP1;ratioP1;P1;durP2;ratioP2;P2;SDS_P1;SDS_P2;PMS_P1;PMS_P2;Temp;Humidity;BMP_temperature;BMP_pressure;BME280_temperature;BME280_humidity;BME280_pressure;Samples;Min_cycle;Max_cycle;Signal;HPM_P1;HPM_P2
2023/08/24 00:02:07;;;;;;;5.93;4.40;;;;;;;;;;4911589;29;20055;-69
2023/08/24 00:04:35;;;;;;;4.68;4.28;;;;;;;;;;4922117;29;20058;-69
2023/08/24 00:07:03;;;;;;;5.38;4.88;;;;;;;;;;4913319;29;20044;-68
2023/08/24 00:09:31;;;;;;;5.53;4.35;;;;;;;;;;4929523;29;20118;-68
2023/08/24 00:11:58;;;;;;;5.55;4.93;;;;;;;;;;4912361;29;20054;-67
2023/08/24 00:14:26;;;;;;;5.38;4.70;;;;;;;;;;4977623;23;20070;-74
2023/08/24 00:16:53;;;;;;;6.15;4.95;;;;;;;;;;4943690;29;20824;-74
2023/08/24 00:19:21;;;;;;;4.90;4.60;;;;;;;;;;4942605;29;20311;-77
2023/08/24 00:21:48;;;;;;;5.05;4.60;;;;;;;;;;4942642;29;20065;-75
2023/08/24 00:24:16;;;;;;;6.93;4.95;;;;;;;;;;4947021;28;20126;-75
2023/08/24 00:26:43;;;;;;;5.97;4.70;;;;;;;;;;4943738;29;20054;-77
2023/08/24 00:29:11;;;;;;;4.88;4.47;;;;;;;;;;4940245;28;20111;-76
2023/08/24 00:31:39;;;;;;;4.97;4.57;;;;;;;;;;4955627;28;20047;-75
2023/08/24 00:34:07;;;;;;;5.97;5.13;;;;;;;;;;4946597;29;20127;-75
2023/08/24 00:36:34;;;;;;;5.38;4.88;;;;;;;;;;4940627;28;20044;-75
2023/08/24 00:39:02;;;;;;;4.78;4.30;;;;;;;;;;4936425;29;20505;-78
2023/08/24 00:41:30;;;;;;;7.28;4.70;;;;;;;;;;4963301;28;20132;-75
2023/08/24 00:43:57;;;;;;;5.25;4.75;;;;;;;;;;4941820;28;20043;-75
2023/08/24 00:46:27;;;;;;;5.90;4.80;;;;;;;;;;4935624;29;20055;-77
2023/08/24 00:48:57;;;;;;;5.10;4.38;;;;;;;;;;4931765;29;20142;-77
2023/08/24 00:51:25;;;;;;;4.75;4.35;;;;;;;;;;4938960;29;20051;-78
2023/08/24 00:53:53;;;;;;;5.47;4.63;;;;;;;;;;4949420;28;20154;-77
2023/08/24 00:56:24;;;;;;;5.53;4.18;;;;;;;;;;4944688;29;20462;-77
2023/08/24 00:58:52;;;;;;;6.70;4.82;;;;;;;;;;4942186;29;20056;-75
2023/08/24 01:01:20;;;;;;;7.00;4.55;;;;;;;;;;4937522;29;20190;-75
2023/08/24 01:03:48;;;;;;;5.00;4.60;;;;;;;;;;4932702;29;20051;-75
2023/08/24 01:06:15;;;;;;;7.65;4.63;;;;;;;;;;4939446;28;20452;-76
2023/08/24 01:08:43;;;;;;;5.43;4.43;;;;;;;;;;4937101;29;20360;-74
2023/08/24 01:11:29;;;;;;;5.25;4.50;;;;;;;;;;4941360;29;20055;-75
2023/08/24 01:14:14;;;;;;;5.18;4.63;;;;;;;;;;4934963;29;20051;-74
2023/08/24 01:16:43;;;;;;;6.78;4.90;;;;;;;;;;4932530;29;20059;-75
2023/08/24 01:19:22;;;;;;;5.65;4.80;;;;;;;;;;4945013;29;20051;-75
2023/08/24 01:21:50;;;;;;;4.35;4.00;;;;;;;;;;4942296;29;20056;-74
2023/08/24 01:24:30;;;;;;;5.03;4.57;;;;;;;;;;4935242;29;20043;-75
2023/08/24 01:26:58;;;;;;;7.07;5.15;;;;;;;;;;4956509;28;20058;-75
2023/08/24 01:29:25;;;;;;;4.68;4.28;;;;;;;;;;4938022;29;20048;-75
2023/08/24 01:31:53;;;;;;;5.90;5.00;;;;;;;;;;4940371;29;20056;-75
2023/08/24 01:34:20;;;;;;;5.40;4.90;;;;;;;;;;4942168;29;20147;-78
2023/08/24 01:36:49;;;;;;;7.65;4.75;;;;;;;;;;4951731;28;20055;-75
2023/08/24 01:39:30;;;;;;;5.40;4.90;;;;;;;;;;4937941;29;20126;-76
2023/08/24 01:42:01;;;;;;;5.88;4.53;;;;;;;;;;4946363;29;20051;-78
2023/08/24 01:44:30;;;;;;;5.43;4.75;;;;;;;;;;4959993;28;20497;-75
2023/08/24 01:46:58;;;;;;;5.10;4.70;;;;;;;;;;4933520;29;20468;-75
2023/08/24 01:49:26;;;;;;;4.55;4.15;;;;;;;;;;4944179;29;20055;-75
2023/08/24 01:51:54;;;;;;;4.68;4.28;;;;;;;;;;4943001;29;20107;-75
2023/08/24 01:54:23;;;;;;;7.47;4.65;;;;;;;;;;4935784;29;20138;-75
2023/08/24 01:56:50;;;;;;;5.05;4.55;;;;;;;;;;4942790;29;20564;-77
2023/08/24 01:59:17;;;;;;;5.18;4.35;;;;;;;;;;4962947;28;20078;-77
2023/08/24 02:01:45;;;;;;;6.82;4.60;;;;;;;;;;4935298;29;20055;-77
2023/08/24 02:04:13;;;;;;;5.80;4.85;;;;;;;;;;4941624;29;20055;-74
2023/08/24 02:06:41;;;;;;;6.70;4.68;;;;;;;;;;4939187;28;20106;-75
2023/08/24 02:09:08;;;;;;;6.20;4.75;;;;;;;;;;4940586;29;20052;-75
2023/08/24 02:11:36;;;;;;;5.32;4.82;;;;;;;;;;4942834;29;20053;-75
2023/08/24 02:14:03;;;;;;;9.93;4.60;;;;;;;;;;4933627;29;20122;-75
2023/08/24 02:16:36;;;;;;;5.72;5.20;;;;;;;;;;4945725;29;20153;-75
2023/08/24 02:19:03;;;;;;;5.30;4.80;;;;;;;;;;4941892;28;20039;-75
2023/08/24 02:21:31;;;;;;;5.13;4.70;;;;;;;;;;4939226;29;20079;-74
2023/08/24 02:23:59;;;;;;;5.05;4.55;;;;;;;;;;4938658;29;20501;-77
2023/08/24 02:26:26;;;;;;;5.57;4.70;;;;;;;;;;4945950;29;20465;-77
2023/08/24 02:28:54;;;;;;;6.40;4.78;;;;;;;;;;4938655;29;20051;-74
2023/08/24 02:31:24;;;;;;;5.28;4.78;;;;;;;;;;4945296;29;20051;-75
2023/08/24 02:33:52;;;;;;;5.30;4.53;;;;;;;;;;4935850;28;20062;-75
2023/08/24 02:36:19;;;;;;;5.55;5.05;;;;;;;;;;4940993;29;20047;-77
2023/08/24 02:38:47;;;;;;;5.50;4.93;;;;;;;;;;4949450;28;20040;-75
2023/08/24 02:41:14;;;;;;;5.38;4.93;;;;;;;;;;4942845;29;20163;-75
2023/08/24 02:43:42;;;;;;;4.63;4.32;;;;;;;;;;4939681;29;20478;-76
2023/08/24 02:46:13;;;;;;;4.93;4.53;;;;;;;;;;4935982;29;20043;-74
2023/08/24 02:48:40;;;;;;;4.88;4.40;;;;;;;;;;4938555;29;20040;-75
2023/08/24 02:51:08;;;;;;;7.50;5.00;;;;;;;;;;4939183;29;20076;-77
2023/08/24 02:53:37;;;;;;;5.35;4.85;;;;;;;;;;4948738;28;20472;-75
2023/08/24 02:56:05;;;;;;;5.50;5.10;;;;;;;;;;4946245;28;20066;-78
2023/08/24 02:58:32;;;;;;;5.30;4.90;;;;;;;;;;4934910;29;20387;-78
2023/08/24 03:00:59;;;;;;;5.28;4.75;;;;;;;;;;4939299;29;20043;-74
2023/08/24 03:03:28;;;;;;;6.00;5.50;;;;;;;;;;4937190;29;20095;-74
2023/08/24 03:06:00;;;;;;;5.53;4.95;;;;;;;;;;4943234;29;20046;-76
2023/08/24 03:08:29;;;;;;;5.50;5.00;;;;;;;;;;4949336;28;20617;-75
2023/08/24 03:10:58;;;;;;;5.82;5.07;;;;;;;;;;4948630;29;20043;-77
2023/08/24 03:13:25;;;;;;;5.70;5.22;;;;;;;;;;4948799;29;20051;-77
2023/08/24 03:15:54;;;;;;;6.53;5.60;;;;;;;;;;4931523;29;20244;-75
2023/08/24 03:18:24;;;;;;;6.35;5.63;;;;;;;;;;4948571;28;20047;-76
2023/08/24 03:20:52;;;;;;;6.85;5.43;;;;;;;;;;4963690;28;20051;-75
2023/08/24 03:23:19;;;;;;;6.97;6.07;;;;;;;;;;4955869;28;20047;-75
2023/08/24 03:25:47;;;;;;;8.27;6.00;;;;;;;;;;4945718;29;20047;-75
2023/08/24 03:28:14;;;;;;;7.07;5.70;;;;;;;;;;4935894;29;20095;-76
2023/08/24 03:30:47;;;;;;;6.93;6.20;;;;;;;;;;4943800;29;20062;-77
2023/08/24 03:33:14;;;;;;;7.00;6.30;;;;;;;;;;4935796;28;20051;-77
2023/08/24 03:35:42;;;;;;;7.45;6.00;;;;;;;;;;4930874;29;20050;-77
2023/08/24 03:38:10;;;;;;;8.10;6.18;;;;;;;;;;4964481;28;20094;-75
2023/08/24 03:40:37;;;;;;;6.70;6.03;;;;;;;;;;4948110;28;20445;-75
2023/08/24 03:43:04;;;;;;;7.00;6.25;;;;;;;;;;4942980;29;20374;-75
2023/08/24 03:45:32;;;;;;;6.70;6.07;;;;;;;;;;4946813;28;20055;-75
2023/08/24 03:48:00;;;;;;;8.18;6.88;;;;;;;;;;4951115;28;20047;-75
2023/08/24 03:50:27;;;;;;;10.18;7.40;;;;;;;;;;4937990;29;20057;-77
2023/08/24 03:52:54;;;;;;;7.15;6.55;;;;;;;;;;4937380;29;20043;-76
2023/08/24 03:55:22;;;;;;;6.80;6.20;;;;;;;;;;4938477;28;20051;-75
2023/08/24 03:57:50;;;;;;;7.00;6.30;;;;;;;;;;4941386;29;20144;-77
2023/08/24 04:00:18;;;;;;;7.38;5.88;;;;;;;;;;4929650;29;20079;-76
2023/08/24 04:02:46;;;;;;;6.80;6.05;;;;;;;;;;4932868;29;20048;-76
2023/08/24 04:05:21;;;;;;;6.20;5.70;;;;;;;;;;4939827;29;20441;-76
2023/08/24 04:07:48;;;;;;;6.43;5.60;;;;;;;;;;4945929;29;20154;-76
2023/08/24 04:10:16;;;;;;;8.60;6.20;;;;;;;;;;4943172;29;20118;-76
2023/08/24 04:12:43;;;;;;;7.85;6.25;;;;;;;;;;4957614;28;20070;-78
2023/08/24 04:15:11;;;;;;;7.80;6.22;;;;;;;;;;4944656;28;20505;-78
2023/08/24 04:17:38;;;;;;;6.75;6.05;;;;;;;;;;4936156;29;20047;-76
2023/08/24 04:20:09;;;;;;;7.88;6.25;;;;;;;;;;4939917;29;20035;-75
2023/08/24 04:22:36;;;;;;;6.88;6.15;;;;;;;;;;4943651;29;20050;-76
2023/08/24 04:25:04;;;;;;;6.78;6.07;;;;;;;;;;4947527;28;20059;-76
2023/08/24 04:27:32;;;;;;;8.10;6.32;;;;;;;;;;4946234;29;20043;-74
2023/08/24 04:30:00;;;;;;;6.20;5.72;;;;;;;;;;4934734;29;20121;-74
2023/08/24 04:32:28;;;;;;;6.60;5.97;;;;;;;;;;4947280;28;20110;-75
2023/08/24 04:34:56;;;;;;;6.95;6.30;;;;;;;;;;4939644;29;20051;-75
2023/08/24 04:37:23;;;;;;;6.15;5.50;;;;;;;;;;4938545;29;20417;-76
2023/08/24 04:39:50;;;;;;;6.75;6.20;;;;;;;;;;4938268;29;20106;-78
2023/08/24 04:42:18;;;;;;;6.57;5.97;;;;;;;;;;4938208;29;20047;-75
2023/08/24 04:44:45;;;;;;;5.70;5.30;;;;;;;;;;4939241;29;20050;-76
2023/08/24 04:47:13;;;;;;;5.88;5.28;;;;;;;;;;4941293;28;20081;-76
2023/08/24 04:49:40;;;;;;;5.70;5.20;;;;;;;;;;4946789;29;20055;-76
2023/08/24 04:52:08;;;;;;;7.25;5.90;;;;;;;;;;4950166;29;20058;-76
2023/08/24 04:54:36;;;;;;;6.50;5.18;;;;;;;;;;4950078;28;20051;-75
2023/08/24 04:57:03;;;;;;;6.40;5.80;;;;;;;;;;4938259;28;20561;-76
2023/08/24 04:59:30;;;;;;;7.40;5.35;;;;;;;;;;4938320;29;20644;-75
2023/08/24 05:01:58;;;;;;;6.55;5.95;;;;;;;;;;4941908;29;20121;-76
2023/08/24 05:04:26;;;;;;;6.35;5.60;;;;;;;;;;4948878;28;20049;-77
2023/08/24 05:06:53;;;;;;;7.90;5.75;;;;;;;;;;4948692;28;20134;-75
2023/08/24 05:09:22;;;;;;;7.53;5.43;;;;;;;;;;4942525;28;20114;-76
2023/08/24 05:11:49;;;;;;;6.10;5.60;;;;;;;;;;4939997;28;20051;-76
2023/08/24 05:14:17;;;;;;;6.50;5.88;;;;;;;;;;4934864;28;20062;-77
2023/08/24 05:16:44;;;;;;;6.15;5.65;;;;;;;;;;4939758;29;20084;-78
2023/08/24 05:19:12;;;;;;;6.28;5.72;;;;;;;;;;4948280;28;20062;-75
2023/08/24 05:21:39;;;;;;;6.97;5.15;;;;;;;;;;4948466;28;20166;-76
2023/08/24 05:24:06;;;;;;;11.27;5.20;;;;;;;;;;4940361;29;20422;-76
2023/08/24 05:26:34;;;;;;;5.97;5.45;;;;;;;;;;4949800;28;20134;-76
2023/08/24 05:29:01;;;;;;;6.05;5.30;;;;;;;;;;4949598;28;20055;-78
2023/08/24 05:31:29;;;;;;;6.55;5.88;;;;;;;;;;4948650;28;20482;-75
2023/08/24 05:33:56;;;;;;;6.82;6.22;;;;;;;;;;4939581;28;20118;-76
2023/08/24 05:36:23;;;;;;;6.38;5.88;;;;;;;;;;4932879;28;20564;-77
2023/08/24 05:38:54;;;;;;;6.97;6.38;;;;;;;;;;4938094;29;20043;-76
2023/08/24 05:41:32;;;;;;;6.53;6.03;;;;;;;;;;4947669;28;20129;-77
2023/08/24 05:44:00;;;;;;;6.90;6.30;;;;;;;;;;4943886;29;20127;-78
2023/08/24 05:46:29;;;;;;;6.85;6.35;;;;;;;;;;4936204;29;20138;-76
2023/08/24 05:48:58;;;;;;;7.32;6.63;;;;;;;;;;4944959;28;20055;-76
2023/08/24 05:51:26;;;;;;;7.65;6.72;;;;;;;;;;4944836;29;20105;-76
2023/08/24 05:53:55;;;;;;;6.80;6.22;;;;;;;;;;4949434;28;20133;-76
2023/08/24 05:56:23;;;;;;;6.43;5.88;;;;;;;;;;4943525;29;20051;-75
2023/08/24 05:58:50;;;;;;;6.00;5.57;;;;;;;;;;4930108;29;20054;-77
2023/08/24 06:01:18;;;;;;;6.40;6.00;;;;;;;;;;4930130;29;20051;-76
2023/08/24 06:03:45;;;;;;;6.03;5.50;;;;;;;;;;4946649;29;20047;-79
2023/08/24 06:06:12;;;;;;;6.28;5.78;;;;;;;;;;4948739;28;20086;-77
2023/08/24 06:08:40;;;;;;;5.70;5.30;;;;;;;;;;4948843;29;20130;-76
2023/08/24 06:11:07;;;;;;;6.88;6.25;;;;;;;;;;4948973;28;20055;-76
2023/08/24 06:13:35;;;;;;;7.47;5.90;;;;;;;;;;4949242;29;20327;-77
2023/08/24 06:16:02;;;;;;;6.35;5.85;;;;;;;;;;5066208;23;20059;-79
2023/08/24 06:18:30;;;;;;;6.80;6.15;;;;;;;;;;4953394;29;20489;-81
2023/08/24 06:20:57;;;;;;;6.38;5.88;;;;;;;;;;4933225;29;20509;-82
2023/08/24 06:23:25;;;;;;;6.80;6.30;;;;;;;;;;4952090;29;20402;-81
2023/08/24 06:25:53;;;;;;;6.30;5.80;;;;;;;;;;4938782;29;20064;-82
2023/08/24 06:28:23;;;;;;;6.10;5.60;;;;;;;;;;4915053;29;20080;-80
2023/08/24 06:30:51;;;;;;;7.10;6.40;;;;;;;;;;4935452;29;20060;-84
2023/08/24 06:33:18;;;;;;;7.03;6.32;;;;;;;;;;4949709;29;20051;-82
2023/08/24 06:35:46;;;;;;;6.32;5.72;;;;;;;;;;4938738;29;20071;-82
2023/08/24 06:38:13;;;;;;;6.40;5.82;;;;;;;;;;4983654;23;20063;-70
2023/08/24 06:40:41;;;;;;;5.95;5.43;;;;;;;;;;4942380;28;20039;-71
2023/08/24 06:43:09;;;;;;;6.45;5.82;;;;;;;;;;4942670;29;20429;-70
2023/08/24 06:45:36;;;;;;;7.90;6.35;;;;;;;;;;4929721;29;20040;-69
2023/08/24 06:48:06;;;;;;;8.80;6.70;;;;;;;;;;4928921;29;20421;-70
2023/08/24 06:50:36;;;;;;;5.70;5.20;;;;;;;;;;4920494;29;20317;-69
2023/08/24 06:53:04;;;;;;;5.70;5.25;;;;;;;;;;4950227;23;20054;-72
2023/08/24 06:55:32;;;;;;;5.72;5.30;;;;;;;;;;4939964;29;20043;-72
2023/08/24 06:58:00;;;;;;;5.15;4.85;;;;;;;;;;4945230;29;20121;-72
2023/08/24 07:00:27;;;;;;;5.68;5.18;;;;;;;;;;4946588;28;20444;-71
2023/08/24 07:02:55;;;;;;;6.05;5.47;;;;;;;;;;4934532;29;20052;-72
2023/08/24 07:05:23;;;;;;;6.88;5.65;;;;;;;;;;4936746;29;20051;-72
2023/08/24 07:07:51;;;;;;;7.07;5.13;;;;;;;;;;4926909;29;20043;-73
2023/08/24 07:10:20;;;;;;;10.00;6.20;;;;;;;;;;4928615;29;20521;-72
2023/08/24 07:12:48;;;;;;;5.43;4.90;;;;;;;;;;4926341;29;20071;-72
2023/08/24 07:15:15;;;;;;;7.38;5.25;;;;;;;;;;4934161;29;20104;-72
2023/08/24 07:17:43;;;;;;;5.85;5.40;;;;;;;;;;4926783;29;20067;-72
2023/08/24 07:20:14;;;;;;;6.03;5.25;;;;;;;;;;4929505;29;20066;-72
2023/08/24 07:22:42;;;;;;;6.13;5.13;;;;;;;;;;4930617;29;20087;-73
2023/08/24 07:25:11;;;;;;;5.65;5.10;;;;;;;;;;4954096;28;20486;-73
2023/08/24 07:27:39;;;;;;;5.32;4.55;;;;;;;;;;4931332;28;20505;-74
2023/08/24 07:30:07;;;;;;;5.35;4.95;;;;;;;;;;4926364;29;20107;-73
2023/08/24 07:32:53;;;;;;;5.60;4.70;;;;;;;;;;4933417;29;20043;-72
2023/08/24 07:35:24;;;;;;;7.93;4.63;;;;;;;;;;4928800;29;20044;-73
2023/08/24 07:37:52;;;;;;;5.32;4.60;;;;;;;;;;4926940;29;20046;-72
2023/08/24 07:40:19;;;;;;;7.85;4.45;;;;;;;;;;4931322;29;20052;-72
2023/08/24 07:42:48;;;;;;;5.43;4.30;;;;;;;;;;4938914;29;20066;-73
2023/08/24 07:45:15;;;;;;;4.82;4.28;;;;;;;;;;4920426;29;20134;-72
2023/08/24 07:47:44;;;;;;;7.47;4.60;;;;;;;;;;4929384;29;20478;-73
2023/08/24 07:50:12;;;;;;;4.13;3.83;;;;;;;;;;4935705;29;20075;-73
2023/08/24 07:52:40;;;;;;;4.85;4.45;;;;;;;;;;4943534;29;20059;-73
2023/08/24 07:55:08;;;;;;;4.30;3.60;;;;;;;;;;4946695;29;20471;-73
2023/08/24 07:57:36;;;;;;;4.70;4.13;;;;;;;;;;4930041;29;20063;-73
2023/08/24 08:00:04;;;;;;;4.30;4.00;;;;;;;;;;4912085;29;20072;-73
2023/08/24 08:02:39;;;;;;;5.43;3.70;;;;;;;;;;4921015;29;20410;-73
2023/08/24 08:05:07;;;;;;;4.38;4.03;;;;;;;;;;4920625;29;20446;-73
2023/08/24 08:07:35;;;;;;;5.22;4.03;;;;;;;;;;4925979;29;20098;-72
2023/08/24 08:10:04;;;;;;;4.45;4.13;;;;;;;;;;4930094;29;20172;-72
2023/08/24 08:12:32;;;;;;;4.68;4.28;;;;;;;;;;4923163;29;20052;-73
2023/08/24 08:15:00;;;;;;;4.07;3.80;;;;;;;;;;4914837;29;20112;-73
2023/08/24 08:17:30;;;;;;;7.05;4.15;;;;;;;;;;4918303;29;20048;-73
2023/08/24 08:19:57;;;;;;;4.40;4.00;;;;;;;;;;4927073;29;20052;-72
2023/08/24 08:22:25;;;;;;;4.07;3.80;;;;;;;;;;4927757;29;20051;-73
2023/08/24 08:24:59;;;;;;;4.78;3.75;;;;;;;;;;4927915;29;20050;-72
2023/08/24 08:27:26;;;;;;;4.28;3.88;;;;;;;;;;4913570;29;20044;-72
2023/08/24 08:29:54;;;;;;;5.07;3.85;;;;;;;;;;4926338;29;20252;-72
2023/08/24 08:32:21;;;;;;;3.50;3.28;;;;;;;;;;4912855;29;20052;-72
2023/08/24 08:34:49;;;;;;;3.92;3.63;;;;;;;;;;4926976;29;20084;-72
2023/08/24 08:37:17;;;;;;;3.85;3.55;;;;;;;;;;4927425;29;20055;-72
2023/08/24 08:39:44;;;;;;;4.20;3.75;;;;;;;;;;4945017;28;20147;-72
2023/08/24 08:42:15;;;;;;;3.72;3.30;;;;;;;;;;4918901;29;20055;-73
2023/08/24 08:44:43;;;;;;;5.65;3.20;;;;;;;;;;4936285;29;20055;-72
2023/08/24 08:47:14;;;;;;;3.70;3.40;;;;;;;;;;4932778;29;20079;-72
2023/08/24 08:49:45;;;;;;;4.07;3.47;;;;;;;;;;4923799;29;20059;-72
2023/08/24 08:52:13;;;;;;;3.78;3.47;;;;;;;;;;4928767;29;20054;-72
2023/08/24 08:54:41;;;;;;;3.60;3.30;;;;;;;;;;4927185;29;20052;-73
2023/08/24 08:57:09;;;;;;;3.38;3.10;;;;;;;;;;4926687;29;20522;-72
2023/08/24 08:59:37;;;;;;;4.03;3.20;;;;;;;;;;4941602;28;20144;-73
2023/08/24 09:02:05;;;;;;;3.45;2.90;;;;;;;;;;4927416;29;20474;-73
2023/08/24 09:04:34;;;;;;;5.25;3.05;;;;;;;;;;4919729;29;20052;-74
2023/08/24 09:07:04;;;;;;;3.88;3.03;;;;;;;;;;4933863;29;20051;-73
2023/08/24 09:09:33;;;;;;;9.75;3.45;;;;;;;;;;4928659;29;20138;-73
2023/08/24 09:12:00;;;;;;;4.03;3.70;;;;;;;;;;4928634;29;20130;-72
2023/08/24 09:14:28;;;;;;;3.45;3.20;;;;;;;;;;4952189;28;20051;-73
2023/08/24 09:16:55;;;;;;;4.25;3.33;;;;;;;;;;4930661;29;20087;-73
2023/08/24 09:19:38;;;;;;;3.17;2.88;;;;;;;;;;4930251;29;20134;-71
2023/08/24 09:22:08;;;;;;;4.15;3.20;;;;;;;;;;4928173;29;20047;-72
2023/08/24 09:24:36;;;;;;;3.50;3.28;;;;;;;;;;4935133;29;20451;-73
2023/08/24 09:27:17;;;;;;;3.28;3.08;;;;;;;;;;4932200;29;20122;-73
2023/08/24 09:29:51;;;;;;;3.58;2.70;;;;;;;;;;4943546;29;20056;-73
2023/08/24 09:32:28;;;;;;;4.25;2.58;;;;;;;;;;4942898;28;20066;-72
2023/08/24 09:34:56;;;;;;;3.70;2.78;;;;;;;;;;4930028;29;20075;-72
2023/08/24 09:37:24;;;;;;;3.78;2.47;;;;;;;;;;4942305;28;20066;-72
2023/08/24 09:40:01;;;;;;;4.60;2.78;;;;;;;;;;4923898;29;20048;-73
2023/08/24 09:42:29;;;;;;;2.58;2.28;;;;;;;;;;4914396;29;20039;-73
2023/08/24 09:45:06;;;;;;;2.35;2.15;;;;;;;;;;4936715;28;20248;-73
2023/08/24 09:47:34;;;;;;;4.35;2.00;;;;;;;;;;4930659;29;20502;-73
2023/08/24 09:50:02;;;;;;;3.10;2.28;;;;;;;;;;4932903;29;20131;-73
2023/08/24 09:52:32;;;;;;;2.08;1.95;;;;;;;;;;4932823;29;20118;-73
2023/08/24 09:55:05;;;;;;;2.37;2.17;;;;;;;;;;4928479;29;20166;-72
2023/08/24 09:57:39;;;;;;;5.70;2.08;;;;;;;;;;4925089;29;20319;-74
2023/08/24 10:00:11;;;;;;;2.70;1.98;;;;;;;;;;4933809;29;20070;-73
2023/08/24 10:02:48;;;;;;;5.50;2.05;;;;;;;;;;4928087;29;20134;-71
2023/08/24 10:05:21;;;;;;;3.03;1.92;;;;;;;;;;4930630;29;20055;-73
2023/08/24 10:07:53;;;;;;;2.72;2.10;;;;;;;;;;4931468;28;20075;-74
2023/08/24 10:10:23;;;;;;;4.18;2.00;;;;;;;;;;4926990;29;20148;-73
2023/08/24 10:12:51;;;;;;;2.65;1.92;;;;;;;;;;4924869;29;20107;-72
2023/08/24 10:15:22;;;;;;;2.50;1.80;;;;;;;;;;4930618;29;20071;-73
2023/08/24 10:17:51;;;;;;;3.67;2.00;;;;;;;;;;4910176;28;20058;-73
2023/08/24 10:20:22;;;;;;;2.60;1.80;;;;;;;;;;4916427;29;20055;-73
2023/08/24 10:22:50;;;;;;;1.80;1.70;;;;;;;;;;4928773;29;20078;-73
2023/08/24 10:25:19;;;;;;;6.07;2.00;;;;;;;;;;4926490;29;20071;-72
2023/08/24 10:27:50;;;;;;;5.13;1.90;;;;;;;;;;4932659;29;20360;-73
2023/08/24 10:30:18;;;;;;;2.08;1.85;;;;;;;;;;4919328;29;20055;-73
2023/08/24 10:32:48;;;;;;;2.92;2.03;;;;;;;;;;4927870;29;20060;-72
2023/08/24 10:35:17;;;;;;;2.72;2.00;;;;;;;;;;4929583;29;20063;-73
2023/08/24 10:37:47;;;;;;;2.05;1.92;;;;;;;;;;4936008;29;20043;-73
2023/08/24 10:40:31;;;;;;;2.55;2.30;;;;;;;;;;4921383;29;20059;-72
2023/08/24 10:42:58;;;;;;;2.38;2.20;;;;;;;;;;4929449;29;20047;-72
2023/08/24 10:45:26;;;;;;;2.72;1.98;;;;;;;;;;4921115;29;20561;-73
2023/08/24 10:47:54;;;;;;;2.17;2.03;;;;;;;;;;4927886;29;20106;-73
2023/08/24 10:50:23;;;;;;;2.45;2.20;;;;;;;;;;4935928;29;20058;-73
2023/08/24 10:52:50;;;;;;;2.88;2.10;;;;;;;;;;4927918;29;20075;-72
2023/08/24 10:55:23;;;;;;;2.55;2.20;;;;;;;;;;4912121;29;22080;-73
2023/08/24 10:57:58;;;;;;;3.92;2.00;;;;;;;;;;4927502;29;20055;-73
2023/08/24 11:00:27;;;;;;;2.63;2.03;;;;;;;;;;4931062;29;20075;-73
2023/08/24 11:02:54;;;;;;;2.25;1.80;;;;;;;;;;4924768;29;20054;-73
2023/08/24 11:05:33;;;;;;;10.20;1.92;;;;;;;;;;4927379;29;20048;-73
2023/08/24 11:08:01;;;;;;;4.65;2.10;;;;;;;;;;4926924;29;20047;-72
2023/08/24 11:10:48;;;;;;;2.10;1.90;;;;;;;;;;4926464;29;20060;-73
2023/08/24 11:13:22;;;;;;;2.17;2.05;;;;;;;;;;4929883;29;20050;-73
2023/08/24 11:15:54;;;;;;;1.90;1.80;;;;;;;;;;4941166;29;20145;-73
2023/08/24 11:18:27;;;;;;;2.88;2.08;;;;;;;;;;4930620;29;20052;-72
2023/08/24 11:21:04;;;;;;;2.00;1.90;;;;;;;;;;4907208;29;20055;-73
2023/08/24 11:23:32;;;;;;;2.28;1.92;;;;;;;;;;4931124;29;20122;-74
2023/08/24 11:26:00;;;;;;;4.80;2.17;;;;;;;;;;4937772;29;20512;-73
2023/08/24 11:28:29;;;;;;;1.95;1.83;;;;;;;;;;4915667;29;20123;-73
2023/08/24 11:30:57;;;;;;;5.47;2.10;;;;;;;;;;4923332;29;20039;-72
2023/08/24 11:33:29;;;;;;;2.05;1.85;;;;;;;;;;4932407;29;20272;-72
2023/08/24 11:35:57;;;;;;;4.55;1.80;;;;;;;;;;4939952;29;20143;-73
2023/08/24 11:38:25;;;;;;;2.42;1.80;;;;;;;;;;4946529;29;20126;-73
2023/08/24 11:40:52;;;;;;;2.20;2.00;;;;;;;;;;4911674;29;20048;-73
2023/08/24 11:43:27;;;;;;;2.05;1.75;;;;;;;;;;4926773;29;20083;-73
2023/08/24 11:45:55;;;;;;;1.98;1.88;;;;;;;;;;4920063;29;20075;-73
2023/08/24 11:48:28;;;;;;;2.40;1.88;;;;;;;;;;4922858;29;20452;-73
2023/08/24 11:50:56;;;;;;;2.38;1.90;;;;;;;;;;4927894;29;20060;-73
2023/08/24 11:53:24;;;;;;;2.75;2.47;;;;;;;;;;4945775;29;20090;-73
2023/08/24 11:55:54;;;;;;;2.17;2.08;;;;;;;;;;4918306;29;20526;-73
2023/08/24 11:58:33;;;;;;;2.30;1.75;;;;;;;;;;4923794;29;20048;-73
2023/08/24 12:01:01;;;;;;;2.38;2.15;;;;;;;;;;4932257;29;20086;-73
2023/08/24 12:03:29;;;;;;;2.40;2.20;;;;;;;;;;4930772;29;20506;-74
2023/08/24 12:06:04;;;;;;;3.05;2.22;;;;;;;;;;4931906;29;20052;-73
2023/08/24 12:08:37;;;;;;;2.10;2.00;;;;;;;;;;4923772;29;20543;-73
2023/08/24 12:11:10;;;;;;;4.57;2.00;;;;;;;;;;4927563;29;20111;-73
2023/08/24 12:13:38;;;;;;;2.92;2.00;;;;;;;;;;4922008;29;20083;-73
2023/08/24 12:16:05;;;;;;;2.50;2.30;;;;;;;;;;4922833;29;20068;-73
2023/08/24 12:18:36;;;;;;;4.50;2.20;;;;;;;;;;4942616;29;20136;-73
2023/08/24 12:21:04;;;;;;;2.00;1.90;;;;;;;;;;4935325;29;20474;-73
2023/08/24 12:23:35;;;;;;;2.38;2.17;;;;;;;;;;4920574;29;20195;-73
2023/08/24 12:26:05;;;;;;;2.85;2.10;;;;;;;;;;4914272;29;20039;-73
2023/08/24 12:28:33;;;;;;;2.20;2.10;;;;;;;;;;4930400;29;20103;-73
2023/08/24 12:31:03;;;;;;;4.78;2.20;;;;;;;;;;4949437;28;20075;-73
2023/08/24 12:33:31;;;;;;;2.38;2.22;;;;;;;;;;4933142;29;20442;-73
2023/08/24 12:35:59;;;;;;;2.42;2.33;;;;;;;;;;4935965;29;20091;-73
2023/08/24 12:38:27;;;;;;;2.15;2.05;;;;;;;;;;4936592;29;20118;-73
2023/08/24 12:40:55;;;;;;;3.28;2.50;;;;;;;;;;4929745;29;20064;-73
2023/08/24 12:43:22;;;;;;;2.35;2.17;;;;;;;;;;4928676;29;20054;-73
2023/08/24 12:45:50;;;;;;;3.78;2.50;;;;;;;;;;4934051;29;20550;-73
2023/08/24 12:48:18;;;;;;;2.75;2.55;;;;;;;;;;4928148;29;20047;-73
2023/08/24 12:50:45;;;;;;;3.03;2.50;;;;;;;;;;4921161;29;20477;-73
2023/08/24 12:53:13;;;;;;;2.78;1.98;;;;;;;;;;4927703;29;20063;-73
2023/08/24 12:55:40;;;;;;;6.82;2.40;;;;;;;;;;4929310;29;20051;-73
2023/08/24 12:58:09;;;;;;;2.35;2.05;;;;;;;;;;4925507;29;20056;-73
2023/08/24 13:00:36;;;;;;;4.97;2.25;;;;;;;;;;4929475;29;20446;-73
2023/08/24 13:03:04;;;;;;;2.38;2.17;;;;;;;;;;4931196;29;20452;-72
2023/08/24 13:05:32;;;;;;;2.28;2.10;;;;;;;;;;4947704;29;20044;-72
2023/08/24 13:08:01;;;;;;;2.25;2.15;;;;;;;;;;4925898;29;20052;-73
2023/08/24 13:10:29;;;;;;;2.60;2.22;;;;;;;;;;4929742;29;21218;-72
2023/08/24 13:12:56;;;;;;;2.30;2.15;;;;;;;;;;4926083;29;20075;-72
2023/08/24 13:15:24;;;;;;;3.20;2.30;;;;;;;;;;4929189;29;20071;-71
2023/08/24 13:17:52;;;;;;;4.38;2.42;;;;;;;;;;4933074;29;20066;-72
2023/08/24 13:20:20;;;;;;;2.30;2.10;;;;;;;;;;4930832;29;20063;-72
2023/08/24 13:22:47;;;;;;;4.53;2.38;;;;;;;;;;4929701;29;20051;-72
2023/08/24 13:25:15;;;;;;;2.58;2.40;;;;;;;;;;4950693;28;20122;-72
2023/08/24 13:27:42;;;;;;;3.95;2.20;;;;;;;;;;4930165;29;20040;-73
2023/08/24 13:30:10;;;;;;;2.30;2.10;;;;;;;;;;4928722;29;20073;-73
2023/08/24 13:32:39;;;;;;;2.58;2.38;;;;;;;;;;4925748;29;20430;-71
2023/08/24 13:35:06;;;;;;;5.07;2.45;;;;;;;;;;4924263;29;20147;-71
2023/08/24 13:37:36;;;;;;;7.00;3.15;;;;;;;;;;4934439;29;20079;-72
2023/08/24 13:40:04;;;;;;;3.70;2.40;;;;;;;;;;4937232;29;20043;-72
2023/08/24 13:42:32;;;;;;;2.30;2.20;;;;;;;;;;4935073;29;20123;-72
2023/08/24 13:44:59;;;;;;;2.70;2.25;;;;;;;;;;4933844;28;20557;-72
2023/08/24 13:47:27;;;;;;;2.70;2.40;;;;;;;;;;4933253;29;20054;-72
2023/08/24 13:49:55;;;;;;;2.20;2.10;;;;;;;;;;4930660;29;20055;-74
2023/08/24 13:52:22;;;;;;;2.42;2.13;;;;;;;;;;4935988;28;20486;-75
2023/08/24 13:54:50;;;;;;;2.40;2.20;;;;;;;;;;4930086;29;20062;-73
2023/08/24 13:57:37;;;;;;;3.15;2.40;;;;;;;;;;4931610;29;20103;-74
2023/08/24 14:00:08;;;;;;;2.80;2.22;;;;;;;;;;4933656;29;20067;-74
2023/08/24 14:02:42;;;;;;;3.33;2.15;;;;;;;;;;4924956;29;20629;-73
2023/08/24 14:05:10;;;;;;;4.75;2.35;;;;;;;;;;4931749;29;20067;-74
2023/08/24 14:07:38;;;;;;;2.30;2.10;;;;;;;;;;4928671;29;20110;-73
2023/08/24 14:10:07;;;;;;;5.07;2.42;;;;;;;;;;4925492;29;20048;-74
2023/08/24 14:12:35;;;;;;;2.63;2.42;;;;;;;;;;4927719;29;20138;-74
2023/08/24 14:15:03;;;;;;;4.00;2.40;;;;;;;;;;4930084;29;20514;-73
2023/08/24 14:17:30;;;;;;;3.65;2.35;;;;;;;;;;4921722;29;20052;-75
2023/08/24 14:19:59;;;;;;;4.22;2.30;;;;;;;;;;4958143;28;20139;-75
2023/08/24 14:22:26;;;;;;;4.65;2.35;;;;;;;;;;4933138;29;20498;-75
2023/08/24 14:24:54;;;;;;;5.75;2.30;;;;;;;;;;4941040;28;20126;-73
2023/08/24 14:27:22;;;;;;;2.45;2.22;;;;;;;;;;4936425;29;20043;-73
2023/08/24 14:29:49;;;;;;;2.95;2.45;;;;;;;;;;4934429;29;20055;-74
2023/08/24 14:32:17;;;;;;;2.90;2.45;;;;;;;;;;4933290;29;20379;-74
2023/08/24 14:34:45;;;;;;;2.88;2.50;;;;;;;;;;4933976;29;20188;-73
2023/08/24 14:37:12;;;;;;;3.25;2.50;;;;;;;;;;4931856;29;20055;-73
2023/08/24 14:39:40;;;;;;;7.38;2.20;;;;;;;;;;4952509;28;20055;-75
2023/08/24 14:42:08;;;;;;;4.55;2.60;;;;;;;;;;4934754;29;20052;-74
2023/08/24 14:44:35;;;;;;;4.15;2.33;;;;;;;;;;4951573;28;20103;-75
2023/08/24 14:47:03;;;;;;;3.33;2.00;;;;;;;;;;4938381;28;20047;-74
2023/08/24 14:49:31;;;;;;;5.35;1.90;;;;;;;;;;4932514;29;20052;-74
2023/08/24 14:51:59;;;;;;;3.08;2.10;;;;;;;;;;4939114;29;20589;-75
2023/08/24 14:54:26;;;;;;;3.50;2.13;;;;;;;;;;4940909;29;20079;-74